Portada
METAR-TAF:

METAR-TAF

Aeropuertos :

Carroll, Iowa, Estados Unidos

latitud: 42-03N, longitud: 094-47W, altitud: 375 m

Observación

El informe se hizo hace 19 minutos, a las 00:55 UTC
Viento 8 kt del oeste-noroeste
Temperatura 10°C
Humedad 53%
Presión 1018 hPa
Visibilidad: 16.1 km
Cielo despejado

METAR: KCIN 300055Z AUTO 29008KT 10SM CLR 10/01 A3006 RMK AO2

Hora: 20:14 (01:14 UTC)


TAF: falta

Observaciones y pronósticos meteorológicos de más de 4000 aeropuertos (mensajes METAR y TAF).

Los puntos amarillos y rojos representan las estaciones disponibles.

Ponga el ratón en el punto deseado para ver el nombre de la estación.

Haga clic para ver las observaciones y los pronósticos meteorológicos.

Para cambiar el mapa : haga clic en los botones verdes con una cruz de color negro para hacer un zoom, en el botón verde con un guión para alejar o en las flechas verdes para mapas adyacentes.


METAR-TAF: